sensor_id;sensor_type;location;lat;lon;timestamp;temperature;humidity
41533;DHT22;27262;-35.248;149.138;2024-01-11T00:01:20;24.30;63.80
41533;DHT22;27262;-35.248;149.138;2024-01-11T00:03:51;24.30;63.90
41533;DHT22;27262;-35.248;149.138;2024-01-11T00:06:21;24.30;64.00
41533;DHT22;27262;-35.248;149.138;2024-01-11T00:08:51;24.30;64.20
41533;DHT22;27262;-35.248;149.138;2024-01-11T00:11:22;24.30;64.30
41533;DHT22;27262;-35.248;149.138;2024-01-11T00:13:52;24.30;65.10
41533;DHT22;27262;-35.248;149.138;2024-01-11T00:16:23;24.40;64.40
41533;DHT22;27262;-35.248;149.138;2024-01-11T00:18:53;24.40;64.50
41533;DHT22;27262;-35.248;149.138;2024-01-11T00:21:23;24.40;64.60
41533;DHT22;27262;-35.248;149.138;2024-01-11T00:23:54;24.50;64.70
41533;DHT22;27262;-35.248;149.138;2024-01-11T00:26:24;24.50;64.80
41533;DHT22;27262;-35.248;149.138;2024-01-11T00:28:54;24.50;64.70
41533;DHT22;27262;-35.248;149.138;2024-01-11T00:31:25;24.50;64.70
41533;DHT22;27262;-35.248;149.138;2024-01-11T00:33:56;24.50;64.80
41533;DHT22;27262;-35.248;149.138;2024-01-11T00:36:27;24.60;64.90
41533;DHT22;27262;-35.248;149.138;2024-01-11T00:38:58;24.50;64.80
41533;DHT22;27262;-35.248;149.138;2024-01-11T00:41:28;24.60;65.00
41533;DHT22;27262;-35.248;149.138;2024-01-11T00:44:00;24.60;65.00
41533;DHT22;27262;-35.248;149.138;2024-01-11T00:46:30;24.60;65.10
41533;DHT22;27262;-35.248;149.138;2024-01-11T00:49:01;24.60;65.10
41533;DHT22;27262;-35.248;149.138;2024-01-11T00:51:32;24.70;65.20
41533;DHT22;27262;-35.248;149.138;2024-01-11T00:54:02;24.70;65.10
41533;DHT22;27262;-35.248;149.138;2024-01-11T00:56:32;24.70;65.10
41533;DHT22;27262;-35.248;149.138;2024-01-11T00:59:03;24.70;65.10
41533;DHT22;27262;-35.248;149.138;2024-01-11T01:01:34;24.70;65.30
41533;DHT22;27262;-35.248;149.138;2024-01-11T01:04:04;24.80;65.40
41533;DHT22;27262;-35.248;149.138;2024-01-11T01:06:34;24.70;65.40
41533;DHT22;27262;-35.248;149.138;2024-01-11T01:09:05;24.80;65.50
41533;DHT22;27262;-35.248;149.138;2024-01-11T01:11:35;24.90;65.60
41533;DHT22;27262;-35.248;149.138;2024-01-11T01:14:06;24.90;65.60
41533;DHT22;27262;-35.248;149.138;2024-01-11T01:16:36;24.90;65.70
41533;DHT22;27262;-35.248;149.138;2024-01-11T01:19:06;24.90;65.70
41533;DHT22;27262;-35.248;149.138;2024-01-11T01:21:37;24.90;65.80
41533;DHT22;27262;-35.248;149.138;2024-01-11T01:24:07;24.90;65.80
41533;DHT22;27262;-35.248;149.138;2024-01-11T01:26:38;24.90;65.80
41533;DHT22;27262;-35.248;149.138;2024-01-11T01:29:09;25.00;65.80
41533;DHT22;27262;-35.248;149.138;2024-01-11T01:31:39;25.00;66.50
41533;DHT22;27262;-35.248;149.138;2024-01-11T01:34:10;25.00;65.70
41533;DHT22;27262;-35.248;149.138;2024-01-11T01:36:41;25.00;65.70
41533;DHT22;27262;-35.248;149.138;2024-01-11T01:39:12;25.00;65.60
41533;DHT22;27262;-35.248;149.138;2024-01-11T01:41:42;25.10;65.70
41533;DHT22;27262;-35.248;149.138;2024-01-11T01:44:13;25.10;65.60
41533;DHT22;27262;-35.248;149.138;2024-01-11T01:46:44;25.00;65.60
41533;DHT22;27262;-35.248;149.138;2024-01-11T01:49:15;25.10;65.50
41533;DHT22;27262;-35.248;149.138;2024-01-11T01:51:53;25.10;65.50
41533;DHT22;27262;-35.248;149.138;2024-01-11T01:54:24;25.20;65.60
41533;DHT22;27262;-35.248;149.138;2024-01-11T01:56:56;25.20;65.60
41533;DHT22;27262;-35.248;149.138;2024-01-11T01:59:26;25.20;65.60
41533;DHT22;27262;-35.248;149.138;2024-01-11T02:01:57;25.20;65.60
41533;DHT22;27262;-35.248;149.138;2024-01-11T02:04:28;25.20;65.70
41533;DHT22;27262;-35.248;149.138;2024-01-11T02:06:59;25.20;65.70
41533;DHT22;27262;-35.248;149.138;2024-01-11T02:09:31;25.20;65.80
41533;DHT22;27262;-35.248;149.138;2024-01-11T02:12:01;25.20;65.80
41533;DHT22;27262;-35.248;149.138;2024-01-11T02:14:33;25.30;65.90
41533;DHT22;27262;-35.248;149.138;2024-01-11T02:17:03;25.30;66.00
41533;DHT22;27262;-35.248;149.138;2024-01-11T02:19:34;25.30;66.10
41533;DHT22;27262;-35.248;149.138;2024-01-11T02:22:24;25.30;66.20
41533;DHT22;27262;-35.248;149.138;2024-01-11T02:24:54;25.40;66.40
41533;DHT22;27262;-35.248;149.138;2024-01-11T02:27:30;25.40;66.40
41533;DHT22;27262;-35.248;149.138;2024-01-11T02:30:00;25.40;66.50
41533;DHT22;27262;-35.248;149.138;2024-01-11T02:32:33;25.40;66.50
41533;DHT22;27262;-35.248;149.138;2024-01-11T02:35:05;25.50;66.50
41533;DHT22;27262;-35.248;149.138;2024-01-11T02:37:38;25.40;66.50
41533;DHT22;27262;-35.248;149.138;2024-01-11T02:40:14;25.40;66.80
41533;DHT22;27262;-35.248;149.138;2024-01-11T02:42:45;25.50;66.70
41533;DHT22;27262;-35.248;149.138;2024-01-11T02:45:17;25.50;66.70
41533;DHT22;27262;-35.248;149.138;2024-01-11T02:47:49;25.50;66.70
41533;DHT22;27262;-35.248;149.138;2024-01-11T02:50:20;25.50;66.70
41533;DHT22;27262;-35.248;149.138;2024-01-11T02:52:51;25.50;66.70
41533;DHT22;27262;-35.248;149.138;2024-01-11T02:55:22;25.60;66.80
41533;DHT22;27262;-35.248;149.138;2024-01-11T02:57:53;25.60;66.80
41533;DHT22;27262;-35.248;149.138;2024-01-11T03:00:24;25.60;66.80
41533;DHT22;27262;-35.248;149.138;2024-01-11T03:02:55;25.60;66.70
41533;DHT22;27262;-35.248;149.138;2024-01-11T03:05:26;25.60;66.70
41533;DHT22;27262;-35.248;149.138;2024-01-11T03:07:57;25.60;66.70
41533;DHT22;27262;-35.248;149.138;2024-01-11T03:10:28;25.70;66.80
41533;DHT22;27262;-35.248;149.138;2024-01-11T03:12:59;25.70;66.80
41533;DHT22;27262;-35.248;149.138;2024-01-11T03:15:29;25.70;65.40
41533;DHT22;27262;-35.248;149.138;2024-01-11T03:17:59;25.60;64.10
41533;DHT22;27262;-35.248;149.138;2024-01-11T03:20:30;25.60;62.90
41533;DHT22;27262;-35.248;149.138;2024-01-11T03:23:01;25.50;62.00
41533;DHT22;27262;-35.248;149.138;2024-01-11T03:25:31;25.40;62.00
41533;DHT22;27262;-35.248;149.138;2024-01-11T03:28:02;25.40;64.10
41533;DHT22;27262;-35.248;149.138;2024-01-11T03:30:33;25.40;64.20
41533;DHT22;27262;-35.248;149.138;2024-01-11T03:33:03;25.40;64.20
41533;DHT22;27262;-35.248;149.138;2024-01-11T03:35:34;25.40;63.40
41533;DHT22;27262;-35.248;149.138;2024-01-11T03:38:04;25.40;62.80
41533;DHT22;27262;-35.248;149.138;2024-01-11T03:40:35;25.30;62.50
41533;DHT22;27262;-35.248;149.138;2024-01-11T03:43:06;25.30;62.30
41533;DHT22;27262;-35.248;149.138;2024-01-11T03:45:37;25.30;62.30
41533;DHT22;27262;-35.248;149.138;2024-01-11T03:48:07;25.20;62.20
41533;DHT22;27262;-35.248;149.138;2024-01-11T03:50:38;25.20;62.10
41533;DHT22;27262;-35.248;149.138;2024-01-11T03:53:09;25.20;62.10
41533;DHT22;27262;-35.248;149.138;2024-01-11T03:55:39;25.20;61.50
41533;DHT22;27262;-35.248;149.138;2024-01-11T03:58:09;25.20;61.10
41533;DHT22;27262;-35.248;149.138;2024-01-11T04:00:40;25.20;61.40
41533;DHT22;27262;-35.248;149.138;2024-01-11T04:03:10;25.20;61.40
41533;DHT22;27262;-35.248;149.138;2024-01-11T04:05:41;25.20;61.00
41533;DHT22;27262;-35.248;149.138;2024-01-11T04:08:12;25.10;60.50
41533;DHT22;27262;-35.248;149.138;2024-01-11T04:10:54;25.10;61.00
41533;DHT22;27262;-35.248;149.138;2024-01-11T04:13:24;25.10;60.10
41533;DHT22;27262;-35.248;149.138;2024-01-11T04:15:55;25.10;59.70
41533;DHT22;27262;-35.248;149.138;2024-01-11T04:18:25;25.10;60.30
41533;DHT22;27262;-35.248;149.138;2024-01-11T04:20:55;25.10;59.50
41533;DHT22;27262;-35.248;149.138;2024-01-11T04:23:26;25.00;59.30
41533;DHT22;27262;-35.248;149.138;2024-01-11T04:25:56;25.00;59.10
41533;DHT22;27262;-35.248;149.138;2024-01-11T04:28:27;25.00;59.00
41533;DHT22;27262;-35.248;149.138;2024-01-11T04:30:57;25.00;59.00
41533;DHT22;27262;-35.248;149.138;2024-01-11T04:33:28;25.00;58.90
41533;DHT22;27262;-35.248;149.138;2024-01-11T04:35:58;24.90;58.80
41533;DHT22;27262;-35.248;149.138;2024-01-11T04:38:29;24.90;58.70
41533;DHT22;27262;-35.248;149.138;2024-01-11T04:40:59;24.90;58.70
41533;DHT22;27262;-35.248;149.138;2024-01-11T04:43:30;24.90;58.70
41533;DHT22;27262;-35.248;149.138;2024-01-11T04:46:01;24.90;58.80
41533;DHT22;27262;-35.248;149.138;2024-01-11T04:48:31;24.80;58.70
41533;DHT22;27262;-35.248;149.138;2024-01-11T04:51:02;24.80;58.70
41533;DHT22;27262;-35.248;149.138;2024-01-11T04:53:39;24.80;58.80
41533;DHT22;27262;-35.248;149.138;2024-01-11T04:56:11;24.80;58.70
41533;DHT22;27262;-35.248;149.138;2024-01-11T04:58:43;24.90;58.70
41533;DHT22;27262;-35.248;149.138;2024-01-11T05:01:15;24.80;58.70
41533;DHT22;27262;-35.248;149.138;2024-01-11T05:03:47;24.80;58.60
41533;DHT22;27262;-35.248;149.138;2024-01-11T05:06:19;24.80;58.60
41533;DHT22;27262;-35.248;149.138;2024-01-11T05:08:52;24.80;58.50
41533;DHT22;27262;-35.248;149.138;2024-01-11T05:11:24;24.80;59.90
41533;DHT22;27262;-35.248;149.138;2024-01-11T05:13:55;24.80;62.50
41533;DHT22;27262;-35.248;149.138;2024-01-11T05:16:28;24.80;63.20
41533;DHT22;27262;-35.248;149.138;2024-01-11T05:18:59;24.90;64.60
41533;DHT22;27262;-35.248;149.138;2024-01-11T05:21:29;24.90;64.50
41533;DHT22;27262;-35.248;149.138;2024-01-11T05:24:00;25.00;64.40
41533;DHT22;27262;-35.248;149.138;2024-01-11T05:26:31;25.10;64.60
41533;DHT22;27262;-35.248;149.138;2024-01-11T05:29:01;25.10;64.70
41533;DHT22;27262;-35.248;149.138;2024-01-11T05:31:34;25.10;64.60
41533;DHT22;27262;-35.248;149.138;2024-01-11T05:34:04;25.10;64.30
41533;DHT22;27262;-35.248;149.138;2024-01-11T05:36:35;25.20;64.20
41533;DHT22;27262;-35.248;149.138;2024-01-11T05:39:05;25.20;64.20
41533;DHT22;27262;-35.248;149.138;2024-01-11T05:41:35;25.20;64.30
41533;DHT22;27262;-35.248;149.138;2024-01-11T05:44:06;25.20;64.30
41533;DHT22;27262;-35.248;149.138;2024-01-11T05:46:36;25.30;64.40
41533;DHT22;27262;-35.248;149.138;2024-01-11T05:49:07;25.30;64.40
41533;DHT22;27262;-35.248;149.138;2024-01-11T05:51:37;25.30;64.30
41533;DHT22;27262;-35.248;149.138;2024-01-11T05:54:08;25.30;64.20
41533;DHT22;27262;-35.248;149.138;2024-01-11T05:56:38;25.30;64.30
41533;DHT22;27262;-35.248;149.138;2024-01-11T05:59:08;25.40;64.30
41533;DHT22;27262;-35.248;149.138;2024-01-11T06:01:43;25.30;64.20
41533;DHT22;27262;-35.248;149.138;2024-01-11T06:04:13;25.40;64.20
41533;DHT22;27262;-35.248;149.138;2024-01-11T06:06:44;25.40;64.00
41533;DHT22;27262;-35.248;149.138;2024-01-11T06:09:15;25.40;63.40
41533;DHT22;27262;-35.248;149.138;2024-01-11T06:11:45;25.40;63.20
41533;DHT22;27262;-35.248;149.138;2024-01-11T06:14:18;25.40;63.10
41533;DHT22;27262;-35.248;149.138;2024-01-11T06:16:48;25.40;62.90
41533;DHT22;27262;-35.248;149.138;2024-01-11T06:19:19;25.40;63.20
41533;DHT22;27262;-35.248;149.138;2024-01-11T06:21:49;25.50;65.00
41533;DHT22;27262;-35.248;149.138;2024-01-11T06:24:19;25.60;65.30
41533;DHT22;27262;-35.248;149.138;2024-01-11T06:26:50;25.70;65.60
41533;DHT22;27262;-35.248;149.138;2024-01-11T06:29:20;25.70;65.60
41533;DHT22;27262;-35.248;149.138;2024-01-11T06:31:50;25.80;65.70
41533;DHT22;27262;-35.248;149.138;2024-01-11T06:34:21;25.80;65.70
41533;DHT22;27262;-35.248;149.138;2024-01-11T06:36:51;25.80;65.70
41533;DHT22;27262;-35.248;149.138;2024-01-11T06:39:22;25.90;65.70
41533;DHT22;27262;-35.248;149.138;2024-01-11T06:41:52;25.90;65.60
41533;DHT22;27262;-35.248;149.138;2024-01-11T06:44:23;26.00;65.70
41533;DHT22;27262;-35.248;149.138;2024-01-11T06:46:53;26.00;65.60
41533;DHT22;27262;-35.248;149.138;2024-01-11T06:49:24;26.00;65.70
41533;DHT22;27262;-35.248;149.138;2024-01-11T06:51:55;26.10;65.70
41533;DHT22;27262;-35.248;149.138;2024-01-11T06:54:25;26.10;65.70
41533;DHT22;27262;-35.248;149.138;2024-01-11T06:56:55;26.20;65.70
41533;DHT22;27262;-35.248;149.138;2024-01-11T06:59:26;26.20;65.70
41533;DHT22;27262;-35.248;149.138;2024-01-11T07:01:56;26.20;65.70
41533;DHT22;27262;-35.248;149.138;2024-01-11T07:04:27;26.30;65.70
41533;DHT22;27262;-35.248;149.138;2024-01-11T07:07:01;26.30;65.70
41533;DHT22;27262;-35.248;149.138;2024-01-11T07:09:34;26.30;65.70
41533;DHT22;27262;-35.248;149.138;2024-01-11T07:12:05;26.30;65.70
41533;DHT22;27262;-35.248;149.138;2024-01-11T07:14:36;26.30;65.80
41533;DHT22;27262;-35.248;149.138;2024-01-11T07:17:06;26.40;65.80
41533;DHT22;27262;-35.248;149.138;2024-01-11T07:19:37;26.40;65.80
41533;DHT22;27262;-35.248;149.138;2024-01-11T07:22:07;26.40;65.80
41533;DHT22;27262;-35.248;149.138;2024-01-11T07:24:38;26.50;65.90
41533;DHT22;27262;-35.248;149.138;2024-01-11T07:27:08;26.50;65.80
41533;DHT22;27262;-35.248;149.138;2024-01-11T07:29:40;26.50;65.70
41533;DHT22;27262;-35.248;149.138;2024-01-11T07:32:10;26.50;65.60
41533;DHT22;27262;-35.248;149.138;2024-01-11T07:34:42;26.60;65.60
41533;DHT22;27262;-35.248;149.138;2024-01-11T07:37:12;26.60;65.50
41533;DHT22;27262;-35.248;149.138;2024-01-11T07:39:43;26.60;65.40
41533;DHT22;27262;-35.248;149.138;2024-01-11T07:42:14;26.60;65.50
41533;DHT22;27262;-35.248;149.138;2024-01-11T07:44:45;26.60;65.40
41533;DHT22;27262;-35.248;149.138;2024-01-11T07:47:16;26.60;65.40
41533;DHT22;27262;-35.248;149.138;2024-01-11T07:49:47;26.60;65.40
41533;DHT22;27262;-35.248;149.138;2024-01-11T07:52:18;26.60;65.40
41533;DHT22;27262;-35.248;149.138;2024-01-11T07:54:49;26.70;65.50
41533;DHT22;27262;-35.248;149.138;2024-01-11T07:57:19;26.70;65.50
41533;DHT22;27262;-35.248;149.138;2024-01-11T07:59:50;26.70;65.60
41533;DHT22;27262;-35.248;149.138;2024-01-11T08:02:20;26.70;65.60
41533;DHT22;27262;-35.248;149.138;2024-01-11T08:04:52;26.70;65.70
41533;DHT22;27262;-35.248;149.138;2024-01-11T08:07:23;26.70;65.70
41533;DHT22;27262;-35.248;149.138;2024-01-11T08:09:54;26.70;65.70
41533;DHT22;27262;-35.248;149.138;2024-01-11T08:12:24;26.70;65.70
41533;DHT22;27262;-35.248;149.138;2024-01-11T08:14:54;26.70;65.70
41533;DHT22;27262;-35.248;149.138;2024-01-11T08:17:25;26.80;65.80
41533;DHT22;27262;-35.248;149.138;2024-01-11T08:19:55;26.80;65.80
41533;DHT22;27262;-35.248;149.138;2024-01-11T08:22:26;26.80;65.80
41533;DHT22;27262;-35.248;149.138;2024-01-11T08:24:58;26.80;65.80
41533;DHT22;27262;-35.248;149.138;2024-01-11T08:27:28;26.80;65.90
41533;DHT22;27262;-35.248;149.138;2024-01-11T08:29:58;26.80;65.90
41533;DHT22;27262;-35.248;149.138;2024-01-11T08:32:34;26.80;65.90
41533;DHT22;27262;-35.248;149.138;2024-01-11T08:35:10;26.80;65.90
41533;DHT22;27262;-35.248;149.138;2024-01-11T08:37:41;26.80;65.90
41533;DHT22;27262;-35.248;149.138;2024-01-11T08:40:12;26.80;65.90
41533;DHT22;27262;-35.248;149.138;2024-01-11T08:42:42;26.80;65.90
41533;DHT22;27262;-35.248;149.138;2024-01-11T08:45:13;26.80;65.80
41533;DHT22;27262;-35.248;149.138;2024-01-11T08:47:47;26.90;65.90
41533;DHT22;27262;-35.248;149.138;2024-01-11T08:50:18;26.90;65.80
41533;DHT22;27262;-35.248;149.138;2024-01-11T08:52:52;26.90;65.70
41533;DHT22;27262;-35.248;149.138;2024-01-11T08:55:24;26.90;66.40
41533;DHT22;27262;-35.248;149.138;2024-01-11T08:57:55;26.90;65.50
41533;DHT22;27262;-35.248;149.138;2024-01-11T09:00:27;26.90;65.50
41533;DHT22;27262;-35.248;149.138;2024-01-11T09:02:57;26.90;65.50
41533;DHT22;27262;-35.248;149.138;2024-01-11T09:05:28;26.90;65.50
41533;DHT22;27262;-35.248;149.138;2024-01-11T09:07:58;27.00;65.50
41533;DHT22;27262;-35.248;149.138;2024-01-11T09:10:29;27.00;65.50
41533;DHT22;27262;-35.248;149.138;2024-01-11T09:12:59;27.00;65.40
41533;DHT22;27262;-35.248;149.138;2024-01-11T09:15:31;27.00;65.50
41533;DHT22;27262;-35.248;149.138;2024-01-11T09:18:21;26.80;64.30
41533;DHT22;27262;-35.248;149.138;2024-01-11T09:20:51;26.70;63.60
41533;DHT22;27262;-35.248;149.138;2024-01-11T09:23:22;26.70;63.50
41533;DHT22;27262;-35.248;149.138;2024-01-11T09:25:53;26.60;63.20
41533;DHT22;27262;-35.248;149.138;2024-01-11T09:28:23;26.50;63.00
41533;DHT22;27262;-35.248;149.138;2024-01-11T09:30:53;26.50;63.10
41533;DHT22;27262;-35.248;149.138;2024-01-11T09:33:29;26.40;62.80
41533;DHT22;27262;-35.248;149.138;2024-01-11T09:36:00;26.30;63.20
41533;DHT22;27262;-35.248;149.138;2024-01-11T09:38:30;26.20;63.00
41533;DHT22;27262;-35.248;149.138;2024-01-11T09:41:10;26.20;63.30
41533;DHT22;27262;-35.248;149.138;2024-01-11T09:43:42;26.20;63.20
41533;DHT22;27262;-35.248;149.138;2024-01-11T09:46:13;26.10;63.00
41533;DHT22;27262;-35.248;149.138;2024-01-11T09:48:44;26.00;63.00
41533;DHT22;27262;-35.248;149.138;2024-01-11T09:51:16;26.00;63.10
41533;DHT22;27262;-35.248;149.138;2024-01-11T09:53:48;26.00;63.20
41533;DHT22;27262;-35.248;149.138;2024-01-11T09:56:21;25.90;62.90
41533;DHT22;27262;-35.248;149.138;2024-01-11T09:58:53;25.80;62.80
41533;DHT22;27262;-35.248;149.138;2024-01-11T10:01:24;25.80;62.90
41533;DHT22;27262;-35.248;149.138;2024-01-11T10:03:55;25.80;63.00
41533;DHT22;27262;-35.248;149.138;2024-01-11T10:06:26;25.70;62.90
41533;DHT22;27262;-35.248;149.138;2024-01-11T10:08:58;25.70;63.20
41533;DHT22;27262;-35.248;149.138;2024-01-11T10:11:28;25.70;63.20
41533;DHT22;27262;-35.248;149.138;2024-01-11T10:13:58;25.70;63.10
41533;DHT22;27262;-35.248;149.138;2024-01-11T10:16:30;25.70;63.00
41533;DHT22;27262;-35.248;149.138;2024-01-11T10:19:01;25.70;63.10
41533;DHT22;27262;-35.248;149.138;2024-01-11T10:21:32;25.80;63.30
41533;DHT22;27262;-35.248;149.138;2024-01-11T10:24:02;25.80;63.20
41533;DHT22;27262;-35.248;149.138;2024-01-11T10:26:34;25.80;62.70
41533;DHT22;27262;-35.248;149.138;2024-01-11T10:29:06;25.70;62.80
41533;DHT22;27262;-35.248;149.138;2024-01-11T10:31:41;25.70;63.00
41533;DHT22;27262;-35.248;149.138;2024-01-11T10:34:11;25.60;62.80
41533;DHT22;27262;-35.248;149.138;2024-01-11T10:36:42;25.50;62.70
41533;DHT22;27262;-35.248;149.138;2024-01-11T10:39:13;25.50;62.90
41533;DHT22;27262;-35.248;149.138;2024-01-11T10:41:50;25.60;63.00
41533;DHT22;27262;-35.248;149.138;2024-01-11T10:44:21;25.60;63.00
41533;DHT22;27262;-35.248;149.138;2024-01-11T10:46:56;25.60;62.80
41533;DHT22;27262;-35.248;149.138;2024-01-11T10:49:30;25.60;62.60
41533;DHT22;27262;-35.248;149.138;2024-01-11T10:52:04;25.60;62.70
41533;DHT22;27262;-35.248;149.138;2024-01-11T10:54:39;25.50;62.80
41533;DHT22;27262;-35.248;149.138;2024-01-11T10:57:12;25.50;62.60
41533;DHT22;27262;-35.248;149.138;2024-01-11T10:59:43;25.40;62.70
41533;DHT22;27262;-35.248;149.138;2024-01-11T11:02:15;25.40;63.50
41533;DHT22;27262;-35.248;149.138;2024-01-11T11:04:46;25.40;62.80
41533;DHT22;27262;-35.248;149.138;2024-01-11T11:07:19;25.30;62.90
41533;DHT22;27262;-35.248;149.138;2024-01-11T11:09:52;25.40;62.80
41533;DHT22;27262;-35.248;149.138;2024-01-11T11:12:22;25.30;62.80
41533;DHT22;27262;-35.248;149.138;2024-01-11T11:14:53;25.40;63.00
41533;DHT22;27262;-35.248;149.138;2024-01-11T11:17:25;25.40;63.00
41533;DHT22;27262;-35.248;149.138;2024-01-11T11:19:57;25.50;63.10
41533;DHT22;27262;-35.248;149.138;2024-01-11T11:22:28;25.50;62.90
41533;DHT22;27262;-35.248;149.138;2024-01-11T11:25:04;25.50;62.80
41533;DHT22;27262;-35.248;149.138;2024-01-11T11:27:37;25.50;62.80
41533;DHT22;27262;-35.248;149.138;2024-01-11T11:30:09;25.50;63.20
41533;DHT22;27262;-35.248;149.138;2024-01-11T11:32:44;25.50;62.80
41533;DHT22;27262;-35.248;149.138;2024-01-11T11:35:15;25.50;62.80
41533;DHT22;27262;-35.248;149.138;2024-01-11T11:37:45;25.50;62.80
41533;DHT22;27262;-35.248;149.138;2024-01-11T11:40:16;25.50;62.80
41533;DHT22;27262;-35.248;149.138;2024-01-11T11:42:48;25.50;62.80
41533;DHT22;27262;-35.248;149.138;2024-01-11T11:45:25;25.50;62.80
41533;DHT22;27262;-35.248;149.138;2024-01-11T11:47:56;25.60;62.70
41533;DHT22;27262;-35.248;149.138;2024-01-11T11:50:27;25.60;62.90
41533;DHT22;27262;-35.248;149.138;2024-01-11T11:53:00;25.60;62.90
41533;DHT22;27262;-35.248;149.138;2024-01-11T11:55:31;25.60;62.90
41533;DHT22;27262;-35.248;149.138;2024-01-11T11:58:02;25.60;63.00
41533;DHT22;27262;-35.248;149.138;2024-01-11T12:00:32;25.60;62.90
41533;DHT22;27262;-35.248;149.138;2024-01-11T12:03:04;25.60;62.90
41533;DHT22;27262;-35.248;149.138;2024-01-11T12:05:38;25.60;62.90
41533;DHT22;27262;-35.248;149.138;2024-01-11T12:08:09;25.50;62.70
41533;DHT22;27262;-35.248;149.138;2024-01-11T12:10:40;25.60;62.80
41533;DHT22;27262;-35.248;149.138;2024-01-11T12:13:12;25.60;62.80
41533;DHT22;27262;-35.248;149.138;2024-01-11T12:15:42;25.60;62.70
41533;DHT22;27262;-35.248;149.138;2024-01-11T12:18:12;25.60;62.80
41533;DHT22;27262;-35.248;149.138;2024-01-11T12:20:44;25.60;62.70
41533;DHT22;27262;-35.248;149.138;2024-01-11T12:23:15;25.60;62.80
41533;DHT22;27262;-35.248;149.138;2024-01-11T12:25:46;25.50;62.70
41533;DHT22;27262;-35.248;149.138;2024-01-11T12:28:16;25.50;62.70
41533;DHT22;27262;-35.248;149.138;2024-01-11T12:30:47;25.60;62.80
41533;DHT22;27262;-35.248;149.138;2024-01-11T12:33:18;25.50;62.70
41533;DHT22;27262;-35.248;149.138;2024-01-11T12:35:49;25.50;62.70
41533;DHT22;27262;-35.248;149.138;2024-01-11T12:38:19;25.60;62.80
41533;DHT22;27262;-35.248;149.138;2024-01-11T12:40:50;25.50;62.80
41533;DHT22;27262;-35.248;149.138;2024-01-11T12:43:21;25.50;62.70
41533;DHT22;27262;-35.248;149.138;2024-01-11T12:45:53;25.50;62.60
41533;DHT22;27262;-35.248;149.138;2024-01-11T12:48:24;25.50;62.70
41533;DHT22;27262;-35.248;149.138;2024-01-11T12:50:55;25.50;62.60
41533;DHT22;27262;-35.248;149.138;2024-01-11T12:53:41;25.50;62.60
41533;DHT22;27262;-35.248;149.138;2024-01-11T12:56:15;25.50;62.70
41533;DHT22;27262;-35.248;149.138;2024-01-11T12:58:46;25.50;62.60
41533;DHT22;27262;-35.248;149.138;2024-01-11T13:01:16;25.50;62.60
41533;DHT22;27262;-35.248;149.138;2024-01-11T13:03:48;25.50;62.70
41533;DHT22;27262;-35.248;149.138;2024-01-11T13:06:19;25.50;62.70
41533;DHT22;27262;-35.248;149.138;2024-01-11T13:08:50;25.50;62.70
41533;DHT22;27262;-35.248;149.138;2024-01-11T13:11:21;25.50;62.70
41533;DHT22;27262;-35.248;149.138;2024-01-11T13:13:53;25.50;62.80
41533;DHT22;27262;-35.248;149.138;2024-01-11T13:16:25;25.50;63.50
41533;DHT22;27262;-35.248;149.138;2024-01-11T13:18:56;25.50;62.70
41533;DHT22;27262;-35.248;149.138;2024-01-11T13:21:26;25.50;62.80
41533;DHT22;27262;-35.248;149.138;2024-01-11T13:23:57;25.50;62.70
41533;DHT22;27262;-35.248;149.138;2024-01-11T13:26:27;25.50;62.70
41533;DHT22;27262;-35.248;149.138;2024-01-11T13:28:58;25.50;62.70
41533;DHT22;27262;-35.248;149.138;2024-01-11T13:31:28;25.50;62.80
41533;DHT22;27262;-35.248;149.138;2024-01-11T13:33:59;25.50;62.80
41533;DHT22;27262;-35.248;149.138;2024-01-11T13:36:30;25.50;62.80
41533;DHT22;27262;-35.248;149.138;2024-01-11T13:39:00;25.50;62.70
41533;DHT22;27262;-35.248;149.138;2024-01-11T13:41:31;25.50;62.80
41533;DHT22;27262;-35.248;149.138;2024-01-11T13:44:03;25.50;62.80
41533;DHT22;27262;-35.248;149.138;2024-01-11T13:46:35;25.50;62.80
41533;DHT22;27262;-35.248;149.138;2024-01-11T13:49:05;25.50;62.80
41533;DHT22;27262;-35.248;149.138;2024-01-11T13:51:36;25.40;62.70
41533;DHT22;27262;-35.248;149.138;2024-01-11T13:54:20;25.40;62.70
41533;DHT22;27262;-35.248;149.138;2024-01-11T13:56:51;25.40;62.80
41533;DHT22;27262;-35.248;149.138;2024-01-11T13:59:22;25.40;62.80
41533;DHT22;27262;-35.248;149.138;2024-01-11T14:01:53;25.40;62.90
41533;DHT22;27262;-35.248;149.138;2024-01-11T14:04:23;25.40;62.80
41533;DHT22;27262;-35.248;149.138;2024-01-11T14:06:54;25.40;62.80
41533;DHT22;27262;-35.248;149.138;2024-01-11T14:09:25;25.40;62.90
41533;DHT22;27262;-35.248;149.138;2024-01-11T14:11:55;25.40;62.90
41533;DHT22;27262;-35.248;149.138;2024-01-11T14:14:26;25.40;63.00
41533;DHT22;27262;-35.248;149.138;2024-01-11T14:16:56;25.40;63.00
41533;DHT22;27262;-35.248;149.138;2024-01-11T14:19:26;25.40;63.10
41533;DHT22;27262;-35.248;149.138;2024-01-11T14:21:57;25.40;63.00
41533;DHT22;27262;-35.248;149.138;2024-01-11T14:24:28;25.40;63.10
41533;DHT22;27262;-35.248;149.138;2024-01-11T14:27:04;25.40;63.10
41533;DHT22;27262;-35.248;149.138;2024-01-11T14:29:35;25.40;63.10
41533;DHT22;27262;-35.248;149.138;2024-01-11T14:32:05;25.40;63.20
41533;DHT22;27262;-35.248;149.138;2024-01-11T14:34:38;25.40;63.20
41533;DHT22;27262;-35.248;149.138;2024-01-11T14:37:09;25.40;63.20
41533;DHT22;27262;-35.248;149.138;2024-01-11T14:39:41;25.40;63.20
41533;DHT22;27262;-35.248;149.138;2024-01-11T14:42:11;25.40;63.30
41533;DHT22;27262;-35.248;149.138;2024-01-11T14:44:41;25.40;63.30
41533;DHT22;27262;-35.248;149.138;2024-01-11T14:47:15;25.40;63.30
41533;DHT22;27262;-35.248;149.138;2024-01-11T14:49:46;25.40;63.30
41533;DHT22;27262;-35.248;149.138;2024-01-11T14:52:17;25.30;63.20
41533;DHT22;27262;-35.248;149.138;2024-01-11T14:54:50;25.40;63.30
41533;DHT22;27262;-35.248;149.138;2024-01-11T14:57:21;25.30;63.20
41533;DHT22;27262;-35.248;149.138;2024-01-11T14:59:52;25.30;63.20
41533;DHT22;27262;-35.248;149.138;2024-01-11T15:02:22;25.30;63.20
41533;DHT22;27262;-35.248;149.138;2024-01-11T15:04:53;25.30;63.20
41533;DHT22;27262;-35.248;149.138;2024-01-11T15:07:24;25.30;63.20
41533;DHT22;27262;-35.248;149.138;2024-01-11T15:09:54;25.30;63.30
41533;DHT22;27262;-35.248;149.138;2024-01-11T15:12:25;25.30;63.30